Troy, OH (45373)

4:40 PM EDT on July 23, 2016 (GMT -0400)
Rural | | Change Station
Active Advisory: Heat Advisory

Elev 854 ft 40.01 °N, 84.21 °W | Updated 20 seconds ago

Mostly Cloudy
Mostly Cloudy
93.8 °F
Feels Like 104 °F
N
0.0
Wind Variable Wind from WNW
Gusts 5.0 mph

Today
High -- | Low -- °F
--% Chance of Precip.
Yesterday
High -- | Low -- °F
Precip. -- in
Pressure 29.99 in
Visibility 10.0 miles
Clouds Few 3900 ft
Scattered Clouds 5000 ft
Mostly Cloudy 25000 ft
Heat Index 104 °F
Dew Point 74 °F
Humidity 53%
Rainfall 0.00 in
Snow Depth Not available.
6:27 AM 8:58 PM
Waning Gibbous, 82% visible
METAR KDAY 231956Z 23005KT 10SM FEW039 SCT050 BKN250 31/22 A3001 RMK AO2 SLP153 T03060222 $
Pressure 29.99 in
Visibility 10.0 miles
Clouds Few 3900 ft
Scattered Clouds 5000 ft
Mostly Cloudy 25000 ft
Heat Index 104 °F
Dew Point 74 °F
Humidity 53%
Rainfall 0.00 in
Snow Depth Not available.
6:27 AM 8:58 PM
Waning Gibbous, 82% visible
METAR KDAY 231956Z 23005KT 10SM FEW039 SCT050 BKN250 31/22 A3001 RMK AO2 SLP153 T03060222 $

10-Day Weather Forecast

Almanac

Astronomy

Jul. 23, 2016 Rise Set
Actual Time
Civil Twilight
Nautical Twilight
Astronomical Twilight
Moon
Length of Visible Light
Length of Day
Tomorrow will be .
, % of the Moon is Illuminated

Today's Extremes

State Highs State Lows

Community

WunderPhotos

Upload Photos

1,926,918 photos uploaded!

WunderBlog® & News

Nearby

Air Quality

  Air Quality AQ Index Pollutant
Not available.

Snow Depth

Station Depth Elevation

Earthquake Activity

City Distance Mag. Time & Date
Minimum magnitude displayed is 2.5.

Coastal Water Temperatures

Place Temperature

Stations

Nearby Weather Stations

Station Location Temp. Windchill Dew Point Humidity Wind Precip. Elev Updated Type
                   

Watches & Warnings

Heat Advisory
Issued: 3:30 PM EDT Jul. 23, 2016 – National Weather Service

... Heat advisory now in effect until 8 PM EDT Sunday...

* heat index values... 100 to 102 due to temperatures in the lower
90s... and dewpoints in the lower 70s.

* Timing... highest temperatures and heat indices will occur during
the afternoon hours.

* Impacts... heat stroke... heat exhaustion and other heat related
illnesses will be possible... especially if you spend a
significant amount of time outdoors... or are involved in any
strenuous outdoor activity.

Precautionary/preparedness actions...

Reduce outdoor activities... especially from mid-morning through
the afternoon. Wear light weight and loose fitting clothing and
drink plenty of water. If possible... spend more time in air
conditioned or well ventilated places.

To reduce risk during outdoor work the occupational safety and
health administration recommends scheduling frequent rest breaks
in shaded or air conditioned environments. Anyone overcome by
heat should be moved to a cool and shaded location. Heat stroke
is an emergency... call 911.